sensor_id;sensor_type;location;lat;lon;timestamp;P1;P2;P0
76421;PMS5003;65254;52.354;13.614;2023-06-19T00:00:00;18;16;
76421;PMS5003;65254;52.354;13.614;2023-06-19T00:04:00;19;17;
76421;PMS5003;65254;52.354;13.614;2023-06-19T00:08:00;18;16;
76421;PMS5003;65254;52.354;13.614;2023-06-19T00:12:00;18;16;
76421;PMS5003;65254;52.354;13.614;2023-06-19T00:16:01;17;15;
76421;PMS5003;65254;52.354;13.614;2023-06-19T00:20:00;19;17;
76421;PMS5003;65254;52.354;13.614;2023-06-19T00:24:00;18;16;
76421;PMS5003;65254;52.354;13.614;2023-06-19T00:28:00;19;17;
76421;PMS5003;65254;52.354;13.614;2023-06-19T00:32:00;19;17;
76421;PMS5003;65254;52.354;13.614;2023-06-19T00:36:00;18;16;
76421;PMS5003;65254;52.354;13.614;2023-06-19T00:40:00;19;17;
76421;PMS5003;65254;52.354;13.614;2023-06-19T00:44:00;18;16;
76421;PMS5003;65254;52.354;13.614;2023-06-19T00:48:01;18;16;
76421;PMS5003;65254;52.354;13.614;2023-06-19T00:52:01;18;16;
76421;PMS5003;65254;52.354;13.614;2023-06-19T00:56:01;17;15;
76421;PMS5003;65254;52.354;13.614;2023-06-19T01:00:00;18;16;
76421;PMS5003;65254;52.354;13.614;2023-06-19T01:04:01;18;16;
76421;PMS5003;65254;52.354;13.614;2023-06-19T01:08:03;19;17;
76421;PMS5003;65254;52.354;13.614;2023-06-19T01:12:04;18;16;
76421;PMS5003;65254;52.354;13.614;2023-06-19T01:16:01;19;17;
76421;PMS5003;65254;52.354;13.614;2023-06-19T01:20:01;18;16;
76421;PMS5003;65254;52.354;13.614;2023-06-19T01:24:00;18;16;
76421;PMS5003;65254;52.354;13.614;2023-06-19T01:28:01;19;17;
76421;PMS5003;65254;52.354;13.614;2023-06-19T01:32:04;19;17;
76421;PMS5003;65254;52.354;13.614;2023-06-19T01:36:01;19;17;
76421;PMS5003;65254;52.354;13.614;2023-06-19T01:40:02;19;17;
76421;PMS5003;65254;52.354;13.614;2023-06-19T01:44:00;18;16;
76421;PMS5003;65254;52.354;13.614;2023-06-19T01:48:01;19;17;
76421;PMS5003;65254;52.354;13.614;2023-06-19T01:52:00;19;17;
76421;PMS5003;65254;52.354;13.614;2023-06-19T01:56:01;20;18;
76421;PMS5003;65254;52.354;13.614;2023-06-19T02:00:00;19;17;
76421;PMS5003;65254;52.354;13.614;2023-06-19T02:04:01;20;18;
76421;PMS5003;65254;52.354;13.614;2023-06-19T02:08:00;19;17;
76421;PMS5003;65254;52.354;13.614;2023-06-19T02:12:00;21;19;
76421;PMS5003;65254;52.354;13.614;2023-06-19T02:16:00;19;17;
76421;PMS5003;65254;52.354;13.614;2023-06-19T02:20:00;19;17;
76421;PMS5003;65254;52.354;13.614;2023-06-19T02:24:00;19;17;
76421;PMS5003;65254;52.354;13.614;2023-06-19T02:28:00;19;17;
76421;PMS5003;65254;52.354;13.614;2023-06-19T02:32:00;20;18;
76421;PMS5003;65254;52.354;13.614;2023-06-19T02:36:00;19;17;
76421;PMS5003;65254;52.354;13.614;2023-06-19T02:40:00;20;18;
76421;PMS5003;65254;52.354;13.614;2023-06-19T02:44:00;20;18;
76421;PMS5003;65254;52.354;13.614;2023-06-19T02:48:00;20;18;
76421;PMS5003;65254;52.354;13.614;2023-06-19T02:52:00;21;19;
76421;PMS5003;65254;52.354;13.614;2023-06-19T02:56:00;20;18;
76421;PMS5003;65254;52.354;13.614;2023-06-19T03:00:00;20;18;
76421;PMS5003;65254;52.354;13.614;2023-06-19T03:04:00;21;19;
76421;PMS5003;65254;52.354;13.614;2023-06-19T03:08:00;21;19;
76421;PMS5003;65254;52.354;13.614;2023-06-19T03:12:00;21;19;
76421;PMS5003;65254;52.354;13.614;2023-06-19T03:16:00;20;18;
76421;PMS5003;65254;52.354;13.614;2023-06-19T03:20:00;20;18;
76421;PMS5003;65254;52.354;13.614;2023-06-19T03:24:00;21;19;
76421;PMS5003;65254;52.354;13.614;2023-06-19T03:28:00;20;18;
76421;PMS5003;65254;52.354;13.614;2023-06-19T03:32:00;20;18;
76421;PMS5003;65254;52.354;13.614;2023-06-19T03:36:00;21;19;
76421;PMS5003;65254;52.354;13.614;2023-06-19T03:40:00;22;20;
76421;PMS5003;65254;52.354;13.614;2023-06-19T03:44:00;21;19;
76421;PMS5003;65254;52.354;13.614;2023-06-19T03:48:00;20;18;
76421;PMS5003;65254;52.354;13.614;2023-06-19T03:52:00;21;19;
76421;PMS5003;65254;52.354;13.614;2023-06-19T03:56:00;21;19;
76421;PMS5003;65254;52.354;13.614;2023-06-19T04:00:00;21;19;
76421;PMS5003;65254;52.354;13.614;2023-06-19T04:04:00;21;19;
76421;PMS5003;65254;52.354;13.614;2023-06-19T04:08:00;21;19;
76421;PMS5003;65254;52.354;13.614;2023-06-19T04:12:00;21;19;
76421;PMS5003;65254;52.354;13.614;2023-06-19T04:16:00;21;19;
76421;PMS5003;65254;52.354;13.614;2023-06-19T04:20:00;22;20;
76421;PMS5003;65254;52.354;13.614;2023-06-19T04:24:00;21;19;
76421;PMS5003;65254;52.354;13.614;2023-06-19T04:28:00;22;20;
76421;PMS5003;65254;52.354;13.614;2023-06-19T04:32:01;22;20;
76421;PMS5003;65254;52.354;13.614;2023-06-19T04:36:00;21;19;
76421;PMS5003;65254;52.354;13.614;2023-06-19T04:40:00;22;20;
76421;PMS5003;65254;52.354;13.614;2023-06-19T04:44:00;20;18;
76421;PMS5003;65254;52.354;13.614;2023-06-19T04:48:00;21;19;
76421;PMS5003;65254;52.354;13.614;2023-06-19T04:52:00;22;20;
76421;PMS5003;65254;52.354;13.614;2023-06-19T04:56:03;21;19;
76421;PMS5003;65254;52.354;13.614;2023-06-19T05:00:00;21;19;
76421;PMS5003;65254;52.354;13.614;2023-06-19T05:04:00;21;19;
76421;PMS5003;65254;52.354;13.614;2023-06-19T05:08:01;21;19;
76421;PMS5003;65254;52.354;13.614;2023-06-19T05:12:00;21;19;
76421;PMS5003;65254;52.354;13.614;2023-06-19T05:16:00;21;19;
76421;PMS5003;65254;52.354;13.614;2023-06-19T05:20:00;22;20;
76421;PMS5003;65254;52.354;13.614;2023-06-19T05:24:00;21;19;
76421;PMS5003;65254;52.354;13.614;2023-06-19T05:28:02;21;19;
76421;PMS5003;65254;52.354;13.614;2023-06-19T05:32:00;21;19;
76421;PMS5003;65254;52.354;13.614;2023-06-19T05:36:00;23;21;
76421;PMS5003;65254;52.354;13.614;2023-06-19T05:40:00;21;19;
76421;PMS5003;65254;52.354;13.614;2023-06-19T05:44:00;21;19;
76421;PMS5003;65254;52.354;13.614;2023-06-19T05:48:00;23;21;
76421;PMS5003;65254;52.354;13.614;2023-06-19T05:52:00;23;21;
76421;PMS5003;65254;52.354;13.614;2023-06-19T05:56:00;22;20;
76421;PMS5003;65254;52.354;13.614;2023-06-19T06:00:00;22;20;
76421;PMS5003;65254;52.354;13.614;2023-06-19T06:04:00;22;20;
76421;PMS5003;65254;52.354;13.614;2023-06-19T06:08:00;23;21;
76421;PMS5003;65254;52.354;13.614;2023-06-19T06:12:00;20;18;
76421;PMS5003;65254;52.354;13.614;2023-06-19T06:16:00;22;20;
76421;PMS5003;65254;52.354;13.614;2023-06-19T06:20:01;21;19;
76421;PMS5003;65254;52.354;13.614;2023-06-19T06:24:00;21;19;
76421;PMS5003;65254;52.354;13.614;2023-06-19T06:28:00;22;20;
76421;PMS5003;65254;52.354;13.614;2023-06-19T06:32:04;21;19;
76421;PMS5003;65254;52.354;13.614;2023-06-19T06:36:01;21;19;
76421;PMS5003;65254;52.354;13.614;2023-06-19T06:40:00;22;20;
76421;PMS5003;65254;52.354;13.614;2023-06-19T06:44:00;22;20;
76421;PMS5003;65254;52.354;13.614;2023-06-19T06:48:00;21;19;
76421;PMS5003;65254;52.354;13.614;2023-06-19T06:52:00;22;20;
76421;PMS5003;65254;52.354;13.614;2023-06-19T06:56:00;20;18;
76421;PMS5003;65254;52.354;13.614;2023-06-19T07:00:00;23;21;
76421;PMS5003;65254;52.354;13.614;2023-06-19T07:04:00;21;19;
76421;PMS5003;65254;52.354;13.614;2023-06-19T07:08:00;22;20;
76421;PMS5003;65254;52.354;13.614;2023-06-19T07:12:00;22;20;
76421;PMS5003;65254;52.354;13.614;2023-06-19T07:16:00;21;19;
76421;PMS5003;65254;52.354;13.614;2023-06-19T07:20:00;21;19;
76421;PMS5003;65254;52.354;13.614;2023-06-19T07:24:00;21;19;
76421;PMS5003;65254;52.354;13.614;2023-06-19T07:28:00;20;18;
76421;PMS5003;65254;52.354;13.614;2023-06-19T07:32:00;19;17;
76421;PMS5003;65254;52.354;13.614;2023-06-19T07:36:00;20;18;
76421;PMS5003;65254;52.354;13.614;2023-06-19T07:40:00;20;18;
76421;PMS5003;65254;52.354;13.614;2023-06-19T07:44:00;20;18;
76421;PMS5003;65254;52.354;13.614;2023-06-19T07:48:00;20;18;
76421;PMS5003;65254;52.354;13.614;2023-06-19T07:52:00;20;18;
76421;PMS5003;65254;52.354;13.614;2023-06-19T07:56:00;18;16;
76421;PMS5003;65254;52.354;13.614;2023-06-19T08:00:00;20;18;
76421;PMS5003;65254;52.354;13.614;2023-06-19T08:04:00;19;17;
76421;PMS5003;65254;52.354;13.614;2023-06-19T08:08:00;20;18;
76421;PMS5003;65254;52.354;13.614;2023-06-19T08:12:00;19;17;
76421;PMS5003;65254;52.354;13.614;2023-06-19T08:16:00;18;16;
76421;PMS5003;65254;52.354;13.614;2023-06-19T08:20:00;18;16;
76421;PMS5003;65254;52.354;13.614;2023-06-19T08:24:00;17;15;
76421;PMS5003;65254;52.354;13.614;2023-06-19T08:28:00;17;15;
76421;PMS5003;65254;52.354;13.614;2023-06-19T08:32:00;18;16;
76421;PMS5003;65254;52.354;13.614;2023-06-19T08:36:00;15;14;
76421;PMS5003;65254;52.354;13.614;2023-06-19T08:40:00;17;15;
76421;PMS5003;65254;52.354;13.614;2023-06-19T08:44:00;18;16;
76421;PMS5003;65254;52.354;13.614;2023-06-19T08:48:01;18;16;
76421;PMS5003;65254;52.354;13.614;2023-06-19T08:52:01;17;15;
76421;PMS5003;65254;52.354;13.614;2023-06-19T08:56:00;18;16;
76421;PMS5003;65254;52.354;13.614;2023-06-19T09:00:00;16;14;
76421;PMS5003;65254;52.354;13.614;2023-06-19T09:04:07;17;15;
76421;PMS5003;65254;52.354;13.614;2023-06-19T09:08:00;17;15;
76421;PMS5003;65254;52.354;13.614;2023-06-19T09:12:01;15;14;
76421;PMS5003;65254;52.354;13.614;2023-06-19T09:16:02;17;15;
76421;PMS5003;65254;52.354;13.614;2023-06-19T09:20:01;16;14;
76421;PMS5003;65254;52.354;13.614;2023-06-19T09:24:04;15;14;
76421;PMS5003;65254;52.354;13.614;2023-06-19T09:28:00;15;14;
76421;PMS5003;65254;52.354;13.614;2023-06-19T09:32:00;17;15;
76421;PMS5003;65254;52.354;13.614;2023-06-19T09:36:02;17;15;
76421;PMS5003;65254;52.354;13.614;2023-06-19T09:40:02;17;15;
76421;PMS5003;65254;52.354;13.614;2023-06-19T09:44:02;17;15;
76421;PMS5003;65254;52.354;13.614;2023-06-19T09:48:00;15;14;
76421;PMS5003;65254;52.354;13.614;2023-06-19T09:52:01;18;16;
76421;PMS5003;65254;52.354;13.614;2023-06-19T09:56:00;17;15;
76421;PMS5003;65254;52.354;13.614;2023-06-19T10:00:06;17;15;
76421;PMS5003;65254;52.354;13.614;2023-06-19T10:04:03;17;15;
76421;PMS5003;65254;52.354;13.614;2023-06-19T10:08:01;17;15;
76421;PMS5003;65254;52.354;13.614;2023-06-19T10:12:11;18;16;
76421;PMS5003;65254;52.354;13.614;2023-06-19T10:16:00;19;17;
76421;PMS5003;65254;52.354;13.614;2023-06-19T10:20:00;18;16;
76421;PMS5003;65254;52.354;13.614;2023-06-19T10:24:01;18;16;
76421;PMS5003;65254;52.354;13.614;2023-06-19T10:28:01;17;15;
76421;PMS5003;65254;52.354;13.614;2023-06-19T10:32:00;19;17;
76421;PMS5003;65254;52.354;13.614;2023-06-19T10:36:01;18;16;
76421;PMS5003;65254;52.354;13.614;2023-06-19T10:40:00;16;14;
76421;PMS5003;65254;52.354;13.614;2023-06-19T10:44:02;17;15;
76421;PMS5003;65254;52.354;13.614;2023-06-19T10:48:01;17;15;
76421;PMS5003;65254;52.354;13.614;2023-06-19T10:52:00;18;16;
76421;PMS5003;65254;52.354;13.614;2023-06-19T10:56:01;15;14;
76421;PMS5003;65254;52.354;13.614;2023-06-19T11:00:00;15;14;
76421;PMS5003;65254;52.354;13.614;2023-06-19T11:04:02;14;13;
76421;PMS5003;65254;52.354;13.614;2023-06-19T11:08:00;15;14;
76421;PMS5003;65254;52.354;13.614;2023-06-19T11:12:00;15;14;
76421;PMS5003;65254;52.354;13.614;2023-06-19T11:16:00;15;14;
76421;PMS5003;65254;52.354;13.614;2023-06-19T11:20:00;17;15;
76421;PMS5003;65254;52.354;13.614;2023-06-19T11:24:00;17;15;
76421;PMS5003;65254;52.354;13.614;2023-06-19T11:28:00;17;15;
76421;PMS5003;65254;52.354;13.614;2023-06-19T11:32:09;17;15;
76421;PMS5003;65254;52.354;13.614;2023-06-19T11:36:01;16;14;
76421;PMS5003;65254;52.354;13.614;2023-06-19T11:40:00;16;14;
76421;PMS5003;65254;52.354;13.614;2023-06-19T11:44:03;16;14;
76421;PMS5003;65254;52.354;13.614;2023-06-19T11:48:04;15;14;
76421;PMS5003;65254;52.354;13.614;2023-06-19T11:52:00;17;15;
76421;PMS5003;65254;52.354;13.614;2023-06-19T11:56:00;17;15;
76421;PMS5003;65254;52.354;13.614;2023-06-19T12:00:00;14;13;
76421;PMS5003;65254;52.354;13.614;2023-06-19T12:04:01;15;14;
76421;PMS5003;65254;52.354;13.614;2023-06-19T12:08:00;15;14;
76421;PMS5003;65254;52.354;13.614;2023-06-19T12:12:01;15;14;
76421;PMS5003;65254;52.354;13.614;2023-06-19T12:16:00;17;15;
76421;PMS5003;65254;52.354;13.614;2023-06-19T12:20:00;15;14;
76421;PMS5003;65254;52.354;13.614;2023-06-19T12:24:00;15;14;
76421;PMS5003;65254;52.354;13.614;2023-06-19T12:28:00;15;14;
76421;PMS5003;65254;52.354;13.614;2023-06-19T12:32:01;17;15;
76421;PMS5003;65254;52.354;13.614;2023-06-19T12:36:01;18;16;
76421;PMS5003;65254;52.354;13.614;2023-06-19T12:40:00;15;14;
76421;PMS5003;65254;52.354;13.614;2023-06-19T12:44:00;15;14;
76421;PMS5003;65254;52.354;13.614;2023-06-19T12:48:00;17;15;
76421;PMS5003;65254;52.354;13.614;2023-06-19T12:52:00;15;14;
76421;PMS5003;65254;52.354;13.614;2023-06-19T12:56:04;15;14;
76421;PMS5003;65254;52.354;13.614;2023-06-19T13:00:00;16;14;
76421;PMS5003;65254;52.354;13.614;2023-06-19T13:04:01;15;14;
76421;PMS5003;65254;52.354;13.614;2023-06-19T13:08:00;15;14;
76421;PMS5003;65254;52.354;13.614;2023-06-19T13:12:00;15;14;
76421;PMS5003;65254;52.354;13.614;2023-06-19T13:16:00;15;14;
76421;PMS5003;65254;52.354;13.614;2023-06-19T13:20:01;14;13;
76421;PMS5003;65254;52.354;13.614;2023-06-19T13:24:00;15;14;
76421;PMS5003;65254;52.354;13.614;2023-06-19T13:28:00;15;14;
76421;PMS5003;65254;52.354;13.614;2023-06-19T13:32:00;15;14;
76421;PMS5003;65254;52.354;13.614;2023-06-19T13:36:00;15;14;
76421;PMS5003;65254;52.354;13.614;2023-06-19T13:40:00;15;14;
76421;PMS5003;65254;52.354;13.614;2023-06-19T13:44:00;15;14;
76421;PMS5003;65254;52.354;13.614;2023-06-19T13:48:01;16;14;
76421;PMS5003;65254;52.354;13.614;2023-06-19T13:52:00;16;14;
76421;PMS5003;65254;52.354;13.614;2023-06-19T13:56:00;15;14;
76421;PMS5003;65254;52.354;13.614;2023-06-19T14:00:00;15;14;
76421;PMS5003;65254;52.354;13.614;2023-06-19T14:04:00;17;15;
76421;PMS5003;65254;52.354;13.614;2023-06-19T14:08:00;15;14;
76421;PMS5003;65254;52.354;13.614;2023-06-19T14:12:00;15;14;
76421;PMS5003;65254;52.354;13.614;2023-06-19T14:16:01;18;16;
76421;PMS5003;65254;52.354;13.614;2023-06-19T14:20:00;17;15;
76421;PMS5003;65254;52.354;13.614;2023-06-19T14:24:00;18;16;
76421;PMS5003;65254;52.354;13.614;2023-06-19T14:28:00;17;15;
76421;PMS5003;65254;52.354;13.614;2023-06-19T14:32:01;17;15;
76421;PMS5003;65254;52.354;13.614;2023-06-19T14:36:00;17;15;
76421;PMS5003;65254;52.354;13.614;2023-06-19T14:40:00;15;14;
76421;PMS5003;65254;52.354;13.614;2023-06-19T14:44:00;17;15;
76421;PMS5003;65254;52.354;13.614;2023-06-19T14:48:00;17;15;
76421;PMS5003;65254;52.354;13.614;2023-06-19T14:52:00;15;14;
76421;PMS5003;65254;52.354;13.614;2023-06-19T14:56:00;14;13;
76421;PMS5003;65254;52.354;13.614;2023-06-19T15:00:00;15;14;
76421;PMS5003;65254;52.354;13.614;2023-06-19T15:04:00;14;13;
76421;PMS5003;65254;52.354;13.614;2023-06-19T15:08:00;14;13;
76421;PMS5003;65254;52.354;13.614;2023-06-19T15:12:00;14;13;
76421;PMS5003;65254;52.354;13.614;2023-06-19T15:16:00;13;12;
76421;PMS5003;65254;52.354;13.614;2023-06-19T15:20:01;13;12;
76421;PMS5003;65254;52.354;13.614;2023-06-19T15:24:00;13;12;
76421;PMS5003;65254;52.354;13.614;2023-06-19T15:28:00;13;12;
76421;PMS5003;65254;52.354;13.614;2023-06-19T15:32:00;12;11;
76421;PMS5003;65254;52.354;13.614;2023-06-19T15:36:00;12;11;
76421;PMS5003;65254;52.354;13.614;2023-06-19T15:40:00;13;12;
76421;PMS5003;65254;52.354;13.614;2023-06-19T15:44:00;12;11;
76421;PMS5003;65254;52.354;13.614;2023-06-19T15:48:00;13;12;
76421;PMS5003;65254;52.354;13.614;2023-06-19T15:52:00;13;12;
76421;PMS5003;65254;52.354;13.614;2023-06-19T15:56:00;12;11;
76421;PMS5003;65254;52.354;13.614;2023-06-19T16:00:00;12;11;
76421;PMS5003;65254;52.354;13.614;2023-06-19T16:04:00;13;12;
76421;PMS5003;65254;52.354;13.614;2023-06-19T16:08:00;13;12;
76421;PMS5003;65254;52.354;13.614;2023-06-19T16:12:00;13;12;
76421;PMS5003;65254;52.354;13.614;2023-06-19T16:16:00;13;12;
76421;PMS5003;65254;52.354;13.614;2023-06-19T16:20:00;13;12;
76421;PMS5003;65254;52.354;13.614;2023-06-19T16:24:00;13;12;
76421;PMS5003;65254;52.354;13.614;2023-06-19T16:28:02;13;12;
76421;PMS5003;65254;52.354;13.614;2023-06-19T16:32:10;13;12;
76421;PMS5003;65254;52.354;13.614;2023-06-19T16:36:00;14;13;
76421;PMS5003;65254;52.354;13.614;2023-06-19T16:40:01;14;13;
76421;PMS5003;65254;52.354;13.614;2023-06-19T16:44:00;13;12;
76421;PMS5003;65254;52.354;13.614;2023-06-19T16:48:00;12;11;
76421;PMS5003;65254;52.354;13.614;2023-06-19T16:52:00;14;13;
76421;PMS5003;65254;52.354;13.614;2023-06-19T16:56:00;12;11;
76421;PMS5003;65254;52.354;13.614;2023-06-19T17:00:00;13;12;
76421;PMS5003;65254;52.354;13.614;2023-06-19T17:04:00;13;12;
76421;PMS5003;65254;52.354;13.614;2023-06-19T17:08:00;13;12;
76421;PMS5003;65254;52.354;13.614;2023-06-19T17:12:00;13;12;
76421;PMS5003;65254;52.354;13.614;2023-06-19T17:16:00;13;12;
76421;PMS5003;65254;52.354;13.614;2023-06-19T17:20:00;14;13;
76421;PMS5003;65254;52.354;13.614;2023-06-19T17:24:00;14;13;
76421;PMS5003;65254;52.354;13.614;2023-06-19T17:28:00;14;13;
76421;PMS5003;65254;52.354;13.614;2023-06-19T17:32:00;14;13;
76421;PMS5003;65254;52.354;13.614;2023-06-19T17:36:00;16;14;
76421;PMS5003;65254;52.354;13.614;2023-06-19T17:40:00;15;14;
76421;PMS5003;65254;52.354;13.614;2023-06-19T17:44:02;15;14;
76421;PMS5003;65254;52.354;13.614;2023-06-19T17:48:00;15;14;
76421;PMS5003;65254;52.354;13.614;2023-06-19T17:52:00;15;14;
76421;PMS5003;65254;52.354;13.614;2023-06-19T17:56:00;17;15;
76421;PMS5003;65254;52.354;13.614;2023-06-19T18:00:06;14;13;
76421;PMS5003;65254;52.354;13.614;2023-06-19T18:04:00;14;13;
76421;PMS5003;65254;52.354;13.614;2023-06-19T18:08:00;15;14;
76421;PMS5003;65254;52.354;13.614;2023-06-19T18:12:00;14;13;
76421;PMS5003;65254;52.354;13.614;2023-06-19T18:16:03;15;14;
76421;PMS5003;65254;52.354;13.614;2023-06-19T18:20:00;14;13;
76421;PMS5003;65254;52.354;13.614;2023-06-19T18:24:05;17;15;
76421;PMS5003;65254;52.354;13.614;2023-06-19T18:28:00;14;13;
76421;PMS5003;65254;52.354;13.614;2023-06-19T18:32:00;15;14;
76421;PMS5003;65254;52.354;13.614;2023-06-19T18:36:00;15;14;
76421;PMS5003;65254;52.354;13.614;2023-06-19T18:40:00;16;14;
76421;PMS5003;65254;52.354;13.614;2023-06-19T18:44:00;15;14;
76421;PMS5003;65254;52.354;13.614;2023-06-19T18:48:00;17;15;
76421;PMS5003;65254;52.354;13.614;2023-06-19T18:52:00;17;15;
76421;PMS5003;65254;52.354;13.614;2023-06-19T18:56:00;17;15;
76421;PMS5003;65254;52.354;13.614;2023-06-19T19:00:00;17;15;
76421;PMS5003;65254;52.354;13.614;2023-06-19T19:04:00;17;15;
76421;PMS5003;65254;52.354;13.614;2023-06-19T19:08:00;16;14;
76421;PMS5003;65254;52.354;13.614;2023-06-19T19:12:00;17;15;
76421;PMS5003;65254;52.354;13.614;2023-06-19T19:16:00;17;15;
76421;PMS5003;65254;52.354;13.614;2023-06-19T19:20:00;17;15;
76421;PMS5003;65254;52.354;13.614;2023-06-19T19:24:00;17;15;
76421;PMS5003;65254;52.354;13.614;2023-06-19T19:28:00;19;17;
76421;PMS5003;65254;52.354;13.614;2023-06-19T19:32:00;19;17;
76421;PMS5003;65254;52.354;13.614;2023-06-19T19:36:00;18;16;
76421;PMS5003;65254;52.354;13.614;2023-06-19T19:40:00;19;17;
76421;PMS5003;65254;52.354;13.614;2023-06-19T19:44:00;19;17;
76421;PMS5003;65254;52.354;13.614;2023-06-19T19:48:00;20;18;
76421;PMS5003;65254;52.354;13.614;2023-06-19T19:52:00;20;18;
76421;PMS5003;65254;52.354;13.614;2023-06-19T19:56:00;20;18;
76421;PMS5003;65254;52.354;13.614;2023-06-19T20:00:00;20;18;
76421;PMS5003;65254;52.354;13.614;2023-06-19T20:04:00;20;18;
76421;PMS5003;65254;52.354;13.614;2023-06-19T20:08:00;21;19;
76421;PMS5003;65254;52.354;13.614;2023-06-19T20:12:10;21;19;
76421;PMS5003;65254;52.354;13.614;2023-06-19T20:16:00;21;19;
76421;PMS5003;65254;52.354;13.614;2023-06-19T20:20:00;20;18;
76421;PMS5003;65254;52.354;13.614;2023-06-19T20:24:00;22;20;
76421;PMS5003;65254;52.354;13.614;2023-06-19T20:28:08;22;20;
76421;PMS5003;65254;52.354;13.614;2023-06-19T20:32:00;21;19;
76421;PMS5003;65254;52.354;13.614;2023-06-19T20:36:00;21;19;
76421;PMS5003;65254;52.354;13.614;2023-06-19T20:40:00;21;19;
76421;PMS5003;65254;52.354;13.614;2023-06-19T20:44:00;22;20;
76421;PMS5003;65254;52.354;13.614;2023-06-19T20:48:00;22;20;
76421;PMS5003;65254;52.354;13.614;2023-06-19T20:52:00;21;19;
76421;PMS5003;65254;52.354;13.614;2023-06-19T20:56:00;22;20;
76421;PMS5003;65254;52.354;13.614;2023-06-19T21:00:00;21;19;
76421;PMS5003;65254;52.354;13.614;2023-06-19T21:04:00;22;20;
76421;PMS5003;65254;52.354;13.614;2023-06-19T21:08:00;22;20;
76421;PMS5003;65254;52.354;13.614;2023-06-19T21:12:00;21;19;
76421;PMS5003;65254;52.354;13.614;2023-06-19T21:16:00;22;20;
76421;PMS5003;65254;52.354;13.614;2023-06-19T21:20:00;22;20;
76421;PMS5003;65254;52.354;13.614;2023-06-19T21:24:01;22;20;
76421;PMS5003;65254;52.354;13.614;2023-06-19T21:28:00;22;20;
76421;PMS5003;65254;52.354;13.614;2023-06-19T21:32:00;23;21;
76421;PMS5003;65254;52.354;13.614;2023-06-19T21:36:01;21;19;
76421;PMS5003;65254;52.354;13.614;2023-06-19T21:40:00;22;20;
76421;PMS5003;65254;52.354;13.614;2023-06-19T21:44:00;23;21;
76421;PMS5003;65254;52.354;13.614;2023-06-19T21:48:00;22;20;
76421;PMS5003;65254;52.354;13.614;2023-06-19T21:52:00;23;21;
76421;PMS5003;65254;52.354;13.614;2023-06-19T21:56:01;24;22;
76421;PMS5003;65254;52.354;13.614;2023-06-19T22:00:00;23;21;
76421;PMS5003;65254;52.354;13.614;2023-06-19T22:04:00;22;20;
76421;PMS5003;65254;52.354;13.614;2023-06-19T22:08:00;22;20;
76421;PMS5003;65254;52.354;13.614;2023-06-19T22:12:00;23;21;
76421;PMS5003;65254;52.354;13.614;2023-06-19T22:16:00;22;20;
76421;PMS5003;65254;52.354;13.614;2023-06-19T22:20:00;23;21;
76421;PMS5003;65254;52.354;13.614;2023-06-19T22:24:00;22;20;
76421;PMS5003;65254;52.354;13.614;2023-06-19T22:28:00;24;22;
76421;PMS5003;65254;52.354;13.614;2023-06-19T22:32:00;22;20;
76421;PMS5003;65254;52.354;13.614;2023-06-19T22:36:00;24;21;
76421;PMS5003;65254;52.354;13.614;2023-06-19T22:40:00;24;22;
76421;PMS5003;65254;52.354;13.614;2023-06-19T22:44:00;23;21;
76421;PMS5003;65254;52.354;13.614;2023-06-19T22:48:00;23;21;
76421;PMS5003;65254;52.354;13.614;2023-06-19T22:52:00;25;22;
76421;PMS5003;65254;52.354;13.614;2023-06-19T22:56:00;23;21;
76421;PMS5003;65254;52.354;13.614;2023-06-19T23:00:03;24;22;
76421;PMS5003;65254;52.354;13.614;2023-06-19T23:04:00;24;22;
76421;PMS5003;65254;52.354;13.614;2023-06-19T23:08:00;25;22;
76421;PMS5003;65254;52.354;13.614;2023-06-19T23:12:00;24;22;
76421;PMS5003;65254;52.354;13.614;2023-06-19T23:16:00;24;22;
76421;PMS5003;65254;52.354;13.614;2023-06-19T23:20:00;26;23;
76421;PMS5003;65254;52.354;13.614;2023-06-19T23:24:00;26;23;
76421;PMS5003;65254;52.354;13.614;2023-06-19T23:28:00;25;22;
76421;PMS5003;65254;52.354;13.614;2023-06-19T23:32:00;25;22;
76421;PMS5003;65254;52.354;13.614;2023-06-19T23:36:00;24;22;
76421;PMS5003;65254;52.354;13.614;2023-06-19T23:40:00;27;24;
76421;PMS5003;65254;52.354;13.614;2023-06-19T23:44:00;26;23;
76421;PMS5003;65254;52.354;13.614;2023-06-19T23:48:00;27;24;
76421;PMS5003;65254;52.354;13.614;2023-06-19T23:52:00;24;22;
76421;PMS5003;65254;52.354;13.614;2023-06-19T23:56:00;24;22;
